sensor_id;sensor_type;location;lat;lon;timestamp;P1;durP1;ratioP1;P2;durP2;ratioP2
33826;SDS011;20128;45.582;5.298;2023-04-15T00:00:15;3.95;;;1.88;;
33826;SDS011;20128;45.582;5.298;2023-04-15T00:02:41;3.00;;;1.15;;
33826;SDS011;20128;45.582;5.298;2023-04-15T00:05:08;2.60;;;1.38;;
33826;SDS011;20128;45.582;5.298;2023-04-15T00:07:34;3.22;;;1.20;;
33826;SDS011;20128;45.582;5.298;2023-04-15T00:10:00;5.20;;;1.33;;
33826;SDS011;20128;45.582;5.298;2023-04-15T00:12:26;2.28;;;1.08;;
33826;SDS011;20128;45.582;5.298;2023-04-15T00:14:52;4.43;;;1.27;;
33826;SDS011;20128;45.582;5.298;2023-04-15T00:17:20;4.55;;;1.33;;
33826;SDS011;20128;45.582;5.298;2023-04-15T00:19:45;2.15;;;1.00;;
33826;SDS011;20128;45.582;5.298;2023-04-15T00:22:11;3.38;;;1.17;;
33826;SDS011;20128;45.582;5.298;2023-04-15T00:24:37;3.97;;;1.40;;
33826;SDS011;20128;45.582;5.298;2023-04-15T00:27:03;2.67;;;1.23;;
33826;SDS011;20128;45.582;5.298;2023-04-15T00:29:29;1.80;;;1.10;;
33826;SDS011;20128;45.582;5.298;2023-04-15T00:31:55;2.00;;;1.15;;
33826;SDS011;20128;45.582;5.298;2023-04-15T00:34:21;3.30;;;1.60;;
33826;SDS011;20128;45.582;5.298;2023-04-15T00:36:48;3.63;;;1.10;;
33826;SDS011;20128;45.582;5.298;2023-04-15T00:39:14;2.17;;;1.20;;
33826;SDS011;20128;45.582;5.298;2023-04-15T00:41:43;5.13;;;1.55;;
33826;SDS011;20128;45.582;5.298;2023-04-15T00:44:09;3.53;;;1.58;;
33826;SDS011;20128;45.582;5.298;2023-04-15T00:46:35;4.40;;;1.55;;
33826;SDS011;20128;45.582;5.298;2023-04-15T00:49:05;5.78;;;2.05;;
33826;SDS011;20128;45.582;5.298;2023-04-15T00:51:32;4.57;;;1.00;;
33826;SDS011;20128;45.582;5.298;2023-04-15T00:54:03;4.43;;;1.08;;
33826;SDS011;20128;45.582;5.298;2023-04-15T00:56:30;1.40;;;0.88;;
33826;SDS011;20128;45.582;5.298;2023-04-15T00:58:59;2.25;;;1.15;;
33826;SDS011;20128;45.582;5.298;2023-04-15T01:01:26;4.50;;;1.33;;
33826;SDS011;20128;45.582;5.298;2023-04-15T01:03:54;4.38;;;1.15;;
33826;SDS011;20128;45.582;5.298;2023-04-15T01:06:22;3.25;;;1.13;;
33826;SDS011;20128;45.582;5.298;2023-04-15T01:08:48;5.00;;;1.17;;
33826;SDS011;20128;45.582;5.298;2023-04-15T01:11:14;2.45;;;1.10;;
33826;SDS011;20128;45.582;5.298;2023-04-15T01:13:41;4.95;;;1.25;;
33826;SDS011;20128;45.582;5.298;2023-04-15T01:16:07;1.80;;;1.08;;
33826;SDS011;20128;45.582;5.298;2023-04-15T01:18:34;2.03;;;1.15;;
33826;SDS011;20128;45.582;5.298;2023-04-15T01:21:01;3.67;;;1.80;;
33826;SDS011;20128;45.582;5.298;2023-04-15T01:23:29;9.65;;;1.25;;
33826;SDS011;20128;45.582;5.298;2023-04-15T01:25:55;6.13;;;1.33;;
33826;SDS011;20128;45.582;5.298;2023-04-15T01:28:21;4.03;;;1.20;;
33826;SDS011;20128;45.582;5.298;2023-04-15T01:30:47;2.83;;;1.13;;
33826;SDS011;20128;45.582;5.298;2023-04-15T01:33:13;3.58;;;2.25;;
33826;SDS011;20128;45.582;5.298;2023-04-15T01:35:38;3.95;;;2.25;;
33826;SDS011;20128;45.582;5.298;2023-04-15T01:38:07;3.25;;;1.33;;
33826;SDS011;20128;45.582;5.298;2023-04-15T01:40:34;3.17;;;1.58;;
33826;SDS011;20128;45.582;5.298;2023-04-15T01:43:00;2.13;;;1.17;;
33826;SDS011;20128;45.582;5.298;2023-04-15T01:45:27;4.18;;;1.17;;
33826;SDS011;20128;45.582;5.298;2023-04-15T01:47:52;2.80;;;1.00;;
33826;SDS011;20128;45.582;5.298;2023-04-15T01:50:18;4.57;;;1.50;;
33826;SDS011;20128;45.582;5.298;2023-04-15T01:52:46;1.48;;;1.02;;
33826;SDS011;20128;45.582;5.298;2023-04-15T01:55:12;1.95;;;0.80;;
33826;SDS011;20128;45.582;5.298;2023-04-15T01:57:38;1.80;;;0.80;;
33826;SDS011;20128;45.582;5.298;2023-04-15T02:00:05;4.40;;;1.08;;
33826;SDS011;20128;45.582;5.298;2023-04-15T02:02:34;3.33;;;1.20;;
33826;SDS011;20128;45.582;5.298;2023-04-15T02:04:59;4.05;;;1.25;;
33826;SDS011;20128;45.582;5.298;2023-04-15T02:07:25;2.95;;;0.95;;
33826;SDS011;20128;45.582;5.298;2023-04-15T02:09:52;1.58;;;0.82;;
33826;SDS011;20128;45.582;5.298;2023-04-15T02:12:18;5.32;;;0.90;;
33826;SDS011;20128;45.582;5.298;2023-04-15T02:14:44;7.03;;;1.15;;
33826;SDS011;20128;45.582;5.298;2023-04-15T02:17:09;1.17;;;0.90;;
33826;SDS011;20128;45.582;5.298;2023-04-15T02:19:35;1.58;;;1.02;;
33826;SDS011;20128;45.582;5.298;2023-04-15T02:22:01;5.63;;;1.10;;
33826;SDS011;20128;45.582;5.298;2023-04-15T02:24:28;2.72;;;0.90;;
33826;SDS011;20128;45.582;5.298;2023-04-15T02:26:54;3.90;;;1.00;;
33826;SDS011;20128;45.582;5.298;2023-04-15T02:29:20;3.15;;;0.80;;
33826;SDS011;20128;45.582;5.298;2023-04-15T02:31:47;3.38;;;1.10;;
33826;SDS011;20128;45.582;5.298;2023-04-15T02:34:12;3.00;;;0.90;;
33826;SDS011;20128;45.582;5.298;2023-04-15T02:36:38;3.28;;;0.85;;
33826;SDS011;20128;45.582;5.298;2023-04-15T02:39:05;6.97;;;1.02;;
33826;SDS011;20128;45.582;5.298;2023-04-15T02:41:30;2.25;;;1.00;;
33826;SDS011;20128;45.582;5.298;2023-04-15T02:43:56;2.78;;;1.55;;
33826;SDS011;20128;45.582;5.298;2023-04-15T02:46:22;3.63;;;1.08;;
33826;SDS011;20128;45.582;5.298;2023-04-15T02:48:48;2.20;;;0.77;;
33826;SDS011;20128;45.582;5.298;2023-04-15T02:51:15;5.32;;;3.13;;
33826;SDS011;20128;45.582;5.298;2023-04-15T02:53:49;2.80;;;1.65;;
33826;SDS011;20128;45.582;5.298;2023-04-15T02:56:15;3.50;;;1.58;;
33826;SDS011;20128;45.582;5.298;2023-04-15T02:58:42;5.20;;;2.53;;
33826;SDS011;20128;45.582;5.298;2023-04-15T03:01:08;2.45;;;1.10;;
33826;SDS011;20128;45.582;5.298;2023-04-15T03:03:34;2.50;;;1.10;;
33826;SDS011;20128;45.582;5.298;2023-04-15T03:06:00;3.17;;;1.10;;
33826;SDS011;20128;45.582;5.298;2023-04-15T03:08:26;3.90;;;1.05;;
33826;SDS011;20128;45.582;5.298;2023-04-15T03:10:51;3.55;;;1.05;;
33826;SDS011;20128;45.582;5.298;2023-04-15T03:13:18;1.15;;;0.65;;
33826;SDS011;20128;45.582;5.298;2023-04-15T03:15:47;2.38;;;1.13;;
33826;SDS011;20128;45.582;5.298;2023-04-15T03:18:13;3.83;;;0.93;;
33826;SDS011;20128;45.582;5.298;2023-04-15T03:20:38;1.38;;;0.82;;
33826;SDS011;20128;45.582;5.298;2023-04-15T03:23:04;2.45;;;0.80;;
33826;SDS011;20128;45.582;5.298;2023-04-15T03:25:30;3.00;;;0.55;;
33826;SDS011;20128;45.582;5.298;2023-04-15T03:27:56;2.70;;;1.35;;
33826;SDS011;20128;45.582;5.298;2023-04-15T03:30:22;1.17;;;0.70;;
33826;SDS011;20128;45.582;5.298;2023-04-15T03:32:47;1.60;;;0.82;;
33826;SDS011;20128;45.582;5.298;2023-04-15T03:35:13;2.25;;;1.02;;
33826;SDS011;20128;45.582;5.298;2023-04-15T03:37:39;11.15;;;5.20;;
33826;SDS011;20128;45.582;5.298;2023-04-15T03:40:05;6.10;;;2.53;;
33826;SDS011;20128;45.582;5.298;2023-04-15T03:42:31;2.53;;;1.40;;
33826;SDS011;20128;45.582;5.298;2023-04-15T03:44:57;3.05;;;1.33;;
33826;SDS011;20128;45.582;5.298;2023-04-15T03:47:23;4.93;;;1.35;;
33826;SDS011;20128;45.582;5.298;2023-04-15T03:49:49;5.03;;;2.72;;
33826;SDS011;20128;45.582;5.298;2023-04-15T03:52:14;9.40;;;2.83;;
33826;SDS011;20128;45.582;5.298;2023-04-15T03:54:40;2.78;;;1.08;;
33826;SDS011;20128;45.582;5.298;2023-04-15T03:57:05;2.45;;;1.02;;
33826;SDS011;20128;45.582;5.298;2023-04-15T03:59:31;3.10;;;0.93;;
33826;SDS011;20128;45.582;5.298;2023-04-15T04:01:57;2.20;;;1.00;;
33826;SDS011;20128;45.582;5.298;2023-04-15T04:04:23;4.53;;;1.30;;
33826;SDS011;20128;45.582;5.298;2023-04-15T04:06:49;6.47;;;1.10;;
33826;SDS011;20128;45.582;5.298;2023-04-15T04:09:15;1.27;;;0.70;;
33826;SDS011;20128;45.582;5.298;2023-04-15T04:11:40;4.20;;;1.40;;
33826;SDS011;20128;45.582;5.298;2023-04-15T04:14:06;2.10;;;0.75;;
33826;SDS011;20128;45.582;5.298;2023-04-15T04:16:31;4.10;;;1.25;;
33826;SDS011;20128;45.582;5.298;2023-04-15T04:18:57;1.27;;;0.57;;
33826;SDS011;20128;45.582;5.298;2023-04-15T04:21:23;7.55;;;2.40;;
33826;SDS011;20128;45.582;5.298;2023-04-15T04:23:49;3.17;;;0.90;;
33826;SDS011;20128;45.582;5.298;2023-04-15T04:26:14;4.35;;;1.17;;
33826;SDS011;20128;45.582;5.298;2023-04-15T04:28:40;3.67;;;0.88;;
33826;SDS011;20128;45.582;5.298;2023-04-15T04:31:06;1.17;;;0.55;;
33826;SDS011;20128;45.582;5.298;2023-04-15T04:33:32;3.83;;;0.82;;
33826;SDS011;20128;45.582;5.298;2023-04-15T04:35:58;4.78;;;0.63;;
33826;SDS011;20128;45.582;5.298;2023-04-15T04:38:23;1.75;;;0.82;;
33826;SDS011;20128;45.582;5.298;2023-04-15T04:40:49;2.22;;;0.70;;
33826;SDS011;20128;45.582;5.298;2023-04-15T04:43:15;5.32;;;0.90;;
33826;SDS011;20128;45.582;5.298;2023-04-15T04:45:40;1.08;;;0.52;;
33826;SDS011;20128;45.582;5.298;2023-04-15T04:48:06;2.30;;;1.42;;
33826;SDS011;20128;45.582;5.298;2023-04-15T04:50:34;3.92;;;0.80;;
33826;SDS011;20128;45.582;5.298;2023-04-15T04:53:00;3.50;;;0.75;;
33826;SDS011;20128;45.582;5.298;2023-04-15T04:55:26;2.88;;;0.73;;
33826;SDS011;20128;45.582;5.298;2023-04-15T04:57:52;1.00;;;0.60;;
33826;SDS011;20128;45.582;5.298;2023-04-15T05:00:17;3.50;;;0.70;;
33826;SDS011;20128;45.582;5.298;2023-04-15T05:02:43;3.70;;;1.05;;
33826;SDS011;20128;45.582;5.298;2023-04-15T05:05:09;3.38;;;0.55;;
33826;SDS011;20128;45.582;5.298;2023-04-15T05:07:36;1.17;;;0.65;;
33826;SDS011;20128;45.582;5.298;2023-04-15T05:10:02;2.25;;;0.80;;
33826;SDS011;20128;45.582;5.298;2023-04-15T05:12:28;2.53;;;0.68;;
33826;SDS011;20128;45.582;5.298;2023-04-15T05:14:54;1.48;;;0.60;;
33826;SDS011;20128;45.582;5.298;2023-04-15T05:17:19;3.40;;;0.73;;
33826;SDS011;20128;45.582;5.298;2023-04-15T05:19:45;1.08;;;0.50;;
33826;SDS011;20128;45.582;5.298;2023-04-15T05:22:11;3.85;;;0.63;;
33826;SDS011;20128;45.582;5.298;2023-04-15T05:24:37;2.47;;;0.55;;
33826;SDS011;20128;45.582;5.298;2023-04-15T05:27:02;3.17;;;0.77;;
33826;SDS011;20128;45.582;5.298;2023-04-15T05:29:28;1.95;;;0.68;;
33826;SDS011;20128;45.582;5.298;2023-04-15T05:31:54;1.48;;;0.55;;
33826;SDS011;20128;45.582;5.298;2023-04-15T05:34:20;5.78;;;0.60;;
33826;SDS011;20128;45.582;5.298;2023-04-15T05:36:46;1.38;;;0.70;;
33826;SDS011;20128;45.582;5.298;2023-04-15T05:39:12;4.35;;;0.80;;
33826;SDS011;20128;45.582;5.298;2023-04-15T05:41:37;3.28;;;0.75;;
33826;SDS011;20128;45.582;5.298;2023-04-15T05:44:03;4.78;;;0.60;;
33826;SDS011;20128;45.582;5.298;2023-04-15T05:46:29;1.13;;;0.40;;
33826;SDS011;20128;45.582;5.298;2023-04-15T05:48:54;1.13;;;0.50;;
33826;SDS011;20128;45.582;5.298;2023-04-15T05:51:20;0.75;;;0.50;;
33826;SDS011;20128;45.582;5.298;2023-04-15T05:53:46;2.25;;;0.75;;
33826;SDS011;20128;45.582;5.298;2023-04-15T05:56:11;1.67;;;0.55;;
33826;SDS011;20128;45.582;5.298;2023-04-15T05:58:37;1.75;;;0.73;;
33826;SDS011;20128;45.582;5.298;2023-04-15T06:01:03;4.32;;;0.90;;
33826;SDS011;20128;45.582;5.298;2023-04-15T06:03:29;0.43;;;0.43;;
33826;SDS011;20128;45.582;5.298;2023-04-15T06:05:55;2.38;;;0.52;;
33826;SDS011;20128;45.582;5.298;2023-04-15T06:08:20;4.03;;;0.63;;
33826;SDS011;20128;45.582;5.298;2023-04-15T06:10:46;2.60;;;0.70;;
33826;SDS011;20128;45.582;5.298;2023-04-15T06:13:12;1.13;;;0.70;;
33826;SDS011;20128;45.582;5.298;2023-04-15T06:15:37;1.30;;;0.60;;
33826;SDS011;20128;45.582;5.298;2023-04-15T06:18:03;3.10;;;0.77;;
33826;SDS011;20128;45.582;5.298;2023-04-15T06:20:29;1.85;;;0.75;;
33826;SDS011;20128;45.582;5.298;2023-04-15T06:22:54;1.48;;;0.68;;
33826;SDS011;20128;45.582;5.298;2023-04-15T06:25:21;1.17;;;0.98;;
33826;SDS011;20128;45.582;5.298;2023-04-15T06:27:47;0.82;;;0.65;;
33826;SDS011;20128;45.582;5.298;2023-04-15T06:30:12;1.30;;;0.90;;
33826;SDS011;20128;45.582;5.298;2023-04-15T06:32:38;3.85;;;1.00;;
33826;SDS011;20128;45.582;5.298;2023-04-15T06:35:04;3.30;;;1.17;;
33826;SDS011;20128;45.582;5.298;2023-04-15T06:37:30;3.65;;;2.03;;
33826;SDS011;20128;45.582;5.298;2023-04-15T06:39:56;4.20;;;2.30;;
33826;SDS011;20128;45.582;5.298;2023-04-15T06:42:22;5.30;;;2.30;;
33826;SDS011;20128;45.582;5.298;2023-04-15T06:44:48;4.05;;;2.33;;
33826;SDS011;20128;45.582;5.298;2023-04-15T06:47:14;4.30;;;1.42;;
33826;SDS011;20128;45.582;5.298;2023-04-15T06:49:40;4.75;;;1.60;;
33826;SDS011;20128;45.582;5.298;2023-04-15T06:52:07;4.30;;;1.33;;
33826;SDS011;20128;45.582;5.298;2023-04-15T06:54:32;7.18;;;1.88;;
33826;SDS011;20128;45.582;5.298;2023-04-15T06:56:58;2.05;;;1.00;;
33826;SDS011;20128;45.582;5.298;2023-04-15T06:59:24;2.28;;;1.08;;
33826;SDS011;20128;45.582;5.298;2023-04-15T07:01:49;1.35;;;0.75;;
33826;SDS011;20128;45.582;5.298;2023-04-15T07:04:15;3.92;;;0.95;;
33826;SDS011;20128;45.582;5.298;2023-04-15T07:06:41;3.30;;;1.02;;
33826;SDS011;20128;45.582;5.298;2023-04-15T07:09:07;1.95;;;0.90;;
33826;SDS011;20128;45.582;5.298;2023-04-15T07:11:33;3.63;;;1.00;;
33826;SDS011;20128;45.582;5.298;2023-04-15T07:13:58;6.05;;;1.10;;
33826;SDS011;20128;45.582;5.298;2023-04-15T07:16:24;4.72;;;0.95;;
33826;SDS011;20128;45.582;5.298;2023-04-15T07:18:50;1.33;;;0.57;;
33826;SDS011;20128;45.582;5.298;2023-04-15T07:21:16;2.17;;;0.90;;
33826;SDS011;20128;45.582;5.298;2023-04-15T07:23:41;4.90;;;0.55;;
33826;SDS011;20128;45.582;5.298;2023-04-15T07:26:07;1.50;;;0.45;;
33826;SDS011;20128;45.582;5.298;2023-04-15T07:28:33;2.83;;;0.52;;
33826;SDS011;20128;45.582;5.298;2023-04-15T07:30:59;3.15;;;0.57;;
33826;SDS011;20128;45.582;5.298;2023-04-15T07:33:25;6.43;;;0.80;;
33826;SDS011;20128;45.582;5.298;2023-04-15T07:35:50;4.63;;;1.08;;
33826;SDS011;20128;45.582;5.298;2023-04-15T07:38:16;2.97;;;1.38;;
33826;SDS011;20128;45.582;5.298;2023-04-15T07:40:42;5.38;;;1.33;;
33826;SDS011;20128;45.582;5.298;2023-04-15T07:43:08;2.97;;;1.00;;
33826;SDS011;20128;45.582;5.298;2023-04-15T07:45:33;4.20;;;1.17;;
33826;SDS011;20128;45.582;5.298;2023-04-15T07:47:59;2.45;;;1.00;;
33826;SDS011;20128;45.582;5.298;2023-04-15T07:50:26;1.95;;;0.90;;
33826;SDS011;20128;45.582;5.298;2023-04-15T07:52:53;4.18;;;1.20;;
33826;SDS011;20128;45.582;5.298;2023-04-15T07:55:19;3.15;;;0.77;;
33826;SDS011;20128;45.582;5.298;2023-04-15T07:57:47;3.63;;;1.10;;
33826;SDS011;20128;45.582;5.298;2023-04-15T08:00:13;7.25;;;1.13;;
33826;SDS011;20128;45.582;5.298;2023-04-15T08:02:40;4.05;;;0.75;;
33826;SDS011;20128;45.582;5.298;2023-04-15T08:05:07;2.67;;;0.82;;
33826;SDS011;20128;45.582;5.298;2023-04-15T08:07:33;3.35;;;1.02;;
33826;SDS011;20128;45.582;5.298;2023-04-15T08:09:59;6.72;;;1.15;;
33826;SDS011;20128;45.582;5.298;2023-04-15T08:12:25;6.97;;;0.80;;
33826;SDS011;20128;45.582;5.298;2023-04-15T08:14:51;4.03;;;1.02;;
33826;SDS011;20128;45.582;5.298;2023-04-15T08:17:16;3.85;;;0.93;;
33826;SDS011;20128;45.582;5.298;2023-04-15T08:19:42;1.67;;;0.77;;
33826;SDS011;20128;45.582;5.298;2023-04-15T08:22:08;4.75;;;0.65;;
33826;SDS011;20128;45.582;5.298;2023-04-15T08:24:35;6.40;;;0.85;;
33826;SDS011;20128;45.582;5.298;2023-04-15T08:27:02;2.63;;;0.60;;
33826;SDS011;20128;45.582;5.298;2023-04-15T08:29:28;4.07;;;0.70;;
33826;SDS011;20128;45.582;5.298;2023-04-15T08:31:54;3.15;;;0.70;;
33826;SDS011;20128;45.582;5.298;2023-04-15T08:34:19;3.53;;;0.60;;
33826;SDS011;20128;45.582;5.298;2023-04-15T08:36:45;3.72;;;0.63;;
33826;SDS011;20128;45.582;5.298;2023-04-15T08:39:11;1.40;;;0.68;;
33826;SDS011;20128;45.582;5.298;2023-04-15T08:41:41;6.35;;;0.50;;
33826;SDS011;20128;45.582;5.298;2023-04-15T08:44:13;2.58;;;0.50;;
33826;SDS011;20128;45.582;5.298;2023-04-15T08:46:40;1.98;;;0.43;;
33826;SDS011;20128;45.582;5.298;2023-04-15T08:49:08;1.80;;;0.40;;
33826;SDS011;20128;45.582;5.298;2023-04-15T08:51:39;2.47;;;0.57;;
33826;SDS011;20128;45.582;5.298;2023-04-15T08:54:05;0.38;;;0.20;;
33826;SDS011;20128;45.582;5.298;2023-04-15T08:56:32;3.50;;;0.95;;
33826;SDS011;20128;45.582;5.298;2023-04-15T08:58:59;2.75;;;0.40;;
33826;SDS011;20128;45.582;5.298;2023-04-15T09:01:25;0.80;;;0.40;;
33826;SDS011;20128;45.582;5.298;2023-04-15T09:03:51;1.92;;;0.65;;
33826;SDS011;20128;45.582;5.298;2023-04-15T09:06:20;0.75;;;0.38;;
33826;SDS011;20128;45.582;5.298;2023-04-15T09:08:46;3.13;;;0.60;;
33826;SDS011;20128;45.582;5.298;2023-04-15T09:11:13;3.05;;;0.50;;
33826;SDS011;20128;45.582;5.298;2023-04-15T09:13:38;2.60;;;0.60;;
33826;SDS011;20128;45.582;5.298;2023-04-15T09:16:05;2.55;;;0.80;;
33826;SDS011;20128;45.582;5.298;2023-04-15T09:18:33;2.80;;;0.55;;
33826;SDS011;20128;45.582;5.298;2023-04-15T09:21:18;1.05;;;0.60;;
33826;SDS011;20128;45.582;5.298;2023-04-15T09:26:31;1.42;;;0.63;;
33826;SDS011;20128;45.582;5.298;2023-04-15T09:29:03;5.78;;;0.45;;
33826;SDS011;20128;45.582;5.298;2023-04-15T09:31:31;2.50;;;0.47;;
33826;SDS011;20128;45.582;5.298;2023-04-15T09:33:57;2.88;;;0.35;;
33826;SDS011;20128;45.582;5.298;2023-04-15T09:36:22;4.97;;;0.50;;
33826;SDS011;20128;45.582;5.298;2023-04-15T09:38:58;1.67;;;0.40;;
33826;SDS011;20128;45.582;5.298;2023-04-15T09:41:25;1.75;;;0.40;;
33826;SDS011;20128;45.582;5.298;2023-04-15T09:43:51;2.08;;;0.55;;
33826;SDS011;20128;45.582;5.298;2023-04-15T09:46:17;2.03;;;0.60;;
33826;SDS011;20128;45.582;5.298;2023-04-15T09:48:43;1.35;;;0.50;;
33826;SDS011;20128;45.582;5.298;2023-04-15T09:51:09;0.90;;;0.47;;
33826;SDS011;20128;45.582;5.298;2023-04-15T09:53:35;0.80;;;0.50;;
33826;SDS011;20128;45.582;5.298;2023-04-15T09:56:02;1.90;;;0.52;;
33826;SDS011;20128;45.582;5.298;2023-04-15T09:58:32;2.55;;;1.25;;
33826;SDS011;20128;45.582;5.298;2023-04-15T10:00:59;1.40;;;0.82;;
33826;SDS011;20128;45.582;5.298;2023-04-15T10:03:28;1.42;;;0.40;;
33826;SDS011;20128;45.582;5.298;2023-04-15T10:05:55;1.23;;;0.63;;
33826;SDS011;20128;45.582;5.298;2023-04-15T10:08:23;3.03;;;0.43;;
33826;SDS011;20128;45.582;5.298;2023-04-15T10:10:54;2.35;;;1.20;;
33826;SDS011;20128;45.582;5.298;2023-04-15T10:13:24;1.15;;;0.55;;
33826;SDS011;20128;45.582;5.298;2023-04-15T10:15:55;2.05;;;0.40;;
33826;SDS011;20128;45.582;5.298;2023-04-15T10:18:21;0.65;;;0.45;;
33826;SDS011;20128;45.582;5.298;2023-04-15T10:20:49;0.60;;;0.40;;
33826;SDS011;20128;45.582;5.298;2023-04-15T10:23:15;3.88;;;0.77;;
33826;SDS011;20128;45.582;5.298;2023-04-15T10:25:42;0.50;;;0.40;;
33826;SDS011;20128;45.582;5.298;2023-04-15T10:28:10;1.80;;;0.50;;
33826;SDS011;20128;45.582;5.298;2023-04-15T10:30:36;3.00;;;0.70;;
33826;SDS011;20128;45.582;5.298;2023-04-15T10:33:02;1.05;;;0.70;;
33826;SDS011;20128;45.582;5.298;2023-04-15T10:35:30;1.00;;;0.40;;
33826;SDS011;20128;45.582;5.298;2023-04-15T10:37:56;0.93;;;0.68;;
33826;SDS011;20128;45.582;5.298;2023-04-15T10:42:51;0.68;;;0.52;;
33826;SDS011;20128;45.582;5.298;2023-04-15T10:45:20;2.30;;;0.50;;
33826;SDS011;20128;45.582;5.298;2023-04-15T10:47:50;2.25;;;0.70;;
33826;SDS011;20128;45.582;5.298;2023-04-15T10:50:21;0.80;;;0.38;;
33826;SDS011;20128;45.582;5.298;2023-04-15T10:52:49;3.67;;;0.80;;
33826;SDS011;20128;45.582;5.298;2023-04-15T10:55:20;0.75;;;0.40;;
33826;SDS011;20128;45.582;5.298;2023-04-15T10:57:51;3.28;;;0.90;;
33826;SDS011;20128;45.582;5.298;2023-04-15T11:00:18;0.65;;;0.50;;
33826;SDS011;20128;45.582;5.298;2023-04-15T11:03:04;1.98;;;0.50;;
33826;SDS011;20128;45.582;5.298;2023-04-15T11:08:09;0.40;;;0.30;;
33826;SDS011;20128;45.582;5.298;2023-04-15T11:13:04;1.35;;;0.52;;
33826;SDS011;20128;45.582;5.298;2023-04-15T11:15:41;0.95;;;0.40;;
33826;SDS011;20128;45.582;5.298;2023-04-15T11:18:21;3.08;;;0.35;;
33826;SDS011;20128;45.582;5.298;2023-04-15T11:20:52;2.75;;;0.30;;
33826;SDS011;20128;45.582;5.298;2023-04-15T11:23:31;0.88;;;0.25;;
33826;SDS011;20128;45.582;5.298;2023-04-15T11:25:59;2.53;;;0.40;;
33826;SDS011;20128;45.582;5.298;2023-04-15T11:28:27;0.47;;;0.30;;
33826;SDS011;20128;45.582;5.298;2023-04-15T11:30:54;3.10;;;0.32;;
33826;SDS011;20128;45.582;5.298;2023-04-15T11:33:20;0.35;;;0.20;;
33826;SDS011;20128;45.582;5.298;2023-04-15T11:35:47;0.73;;;0.40;;
33826;SDS011;20128;45.582;5.298;2023-04-15T11:38:12;2.95;;;0.40;;
33826;SDS011;20128;45.582;5.298;2023-04-15T11:40:39;1.15;;;0.40;;
33826;SDS011;20128;45.582;5.298;2023-04-15T11:45:36;1.30;;;1.00;;
33826;SDS011;20128;45.582;5.298;2023-04-15T11:48:11;0.95;;;0.40;;
33826;SDS011;20128;45.582;5.298;2023-04-15T11:50:38;2.78;;;0.65;;
33826;SDS011;20128;45.582;5.298;2023-04-15T11:53:08;0.60;;;0.40;;
33826;SDS011;20128;45.582;5.298;2023-04-15T11:55:45;1.25;;;0.50;;
33826;SDS011;20128;45.582;5.298;2023-04-15T11:58:13;1.90;;;0.52;;
33826;SDS011;20128;45.582;5.298;2023-04-15T12:00:41;2.33;;;0.60;;
33826;SDS011;20128;45.582;5.298;2023-04-15T12:13:52;1.30;;;0.35;;
33826;SDS011;20128;45.582;5.298;2023-04-15T12:16:22;0.30;;;0.20;;
33826;SDS011;20128;45.582;5.298;2023-04-15T12:18:52;3.35;;;0.35;;
33826;SDS011;20128;45.582;5.298;2023-04-15T12:21:20;0.47;;;0.47;;
33826;SDS011;20128;45.582;5.298;2023-04-15T12:23:48;0.65;;;0.40;;
33826;SDS011;20128;45.582;5.298;2023-04-15T12:26:14;1.88;;;0.30;;
33826;SDS011;20128;45.582;5.298;2023-04-15T12:28:41;3.00;;;0.30;;
33826;SDS011;20128;45.582;5.298;2023-04-15T12:31:07;2.20;;;0.32;;
33826;SDS011;20128;45.582;5.298;2023-04-15T12:33:34;2.65;;;0.25;;
33826;SDS011;20128;45.582;5.298;2023-04-15T12:36:00;2.42;;;0.35;;
33826;SDS011;20128;45.582;5.298;2023-04-15T12:38:25;0.68;;;0.38;;
33826;SDS011;20128;45.582;5.298;2023-04-15T12:40:52;0.40;;;0.30;;
33826;SDS011;20128;45.582;5.298;2023-04-15T12:43:18;0.55;;;0.20;;
33826;SDS011;20128;45.582;5.298;2023-04-15T12:45:43;1.20;;;0.40;;
33826;SDS011;20128;45.582;5.298;2023-04-15T12:48:09;0.40;;;0.20;;
33826;SDS011;20128;45.582;5.298;2023-04-15T12:50:35;1.90;;;0.80;;
33826;SDS011;20128;45.582;5.298;2023-04-15T12:53:01;1.55;;;0.75;;
33826;SDS011;20128;45.582;5.298;2023-04-15T12:55:27;2.97;;;0.20;;
33826;SDS011;20128;45.582;5.298;2023-04-15T12:57:54;1.35;;;0.20;;
33826;SDS011;20128;45.582;5.298;2023-04-15T13:00:23;0.65;;;0.30;;
33826;SDS011;20128;45.582;5.298;2023-04-15T13:02:49;0.35;;;0.35;;
33826;SDS011;20128;45.582;5.298;2023-04-15T13:05:14;1.48;;;0.43;;
33826;SDS011;20128;45.582;5.298;2023-04-15T13:07:41;5.47;;;0.80;;
33826;SDS011;20128;45.582;5.298;2023-04-15T13:10:07;0.38;;;0.38;;
33826;SDS011;20128;45.582;5.298;2023-04-15T13:12:33;2.03;;;0.30;;
33826;SDS011;20128;45.582;5.298;2023-04-15T13:15:02;1.38;;;0.68;;
33826;SDS011;20128;45.582;5.298;2023-04-15T13:17:28;0.40;;;0.20;;
33826;SDS011;20128;45.582;5.298;2023-04-15T13:19:54;0.90;;;0.50;;
33826;SDS011;20128;45.582;5.298;2023-04-15T13:22:20;0.25;;;0.17;;
33826;SDS011;20128;45.582;5.298;2023-04-15T13:24:45;1.17;;;0.30;;
33826;SDS011;20128;45.582;5.298;2023-04-15T13:27:11;1.48;;;0.30;;
33826;SDS011;20128;45.582;5.298;2023-04-15T13:29:37;1.15;;;0.20;;
33826;SDS011;20128;45.582;5.298;2023-04-15T13:32:04;0.55;;;0.35;;
33826;SDS011;20128;45.582;5.298;2023-04-15T13:34:30;0.82;;;0.45;;
33826;SDS011;20128;45.582;5.298;2023-04-15T13:36:56;0.10;;;0.10;;
33826;SDS011;20128;45.582;5.298;2023-04-15T13:39:22;1.73;;;0.60;;
33826;SDS011;20128;45.582;5.298;2023-04-15T13:41:47;0.95;;;0.40;;
33826;SDS011;20128;45.582;5.298;2023-04-15T13:44:13;1.15;;;0.60;;
33826;SDS011;20128;45.582;5.298;2023-04-15T13:46:39;0.20;;;0.20;;
33826;SDS011;20128;45.582;5.298;2023-04-15T13:49:08;0.43;;;0.22;;
33826;SDS011;20128;45.582;5.298;2023-04-15T13:51:33;0.40;;;0.20;;
33826;SDS011;20128;45.582;5.298;2023-04-15T13:54:00;1.02;;;0.50;;
33826;SDS011;20128;45.582;5.298;2023-04-15T13:56:28;0.65;;;0.30;;
33826;SDS011;20128;45.582;5.298;2023-04-15T13:58:53;0.40;;;0.30;;
33826;SDS011;20128;45.582;5.298;2023-04-15T14:01:22;0.75;;;0.40;;
33826;SDS011;20128;45.582;5.298;2023-04-15T14:03:48;1.02;;;0.30;;
33826;SDS011;20128;45.582;5.298;2023-04-15T14:06:14;1.48;;;0.30;;
33826;SDS011;20128;45.582;5.298;2023-04-15T14:08:40;1.17;;;0.30;;
33826;SDS011;20128;45.582;5.298;2023-04-15T14:11:05;3.78;;;0.50;;
33826;SDS011;20128;45.582;5.298;2023-04-15T14:13:31;0.82;;;0.30;;
33826;SDS011;20128;45.582;5.298;2023-04-15T14:15:57;1.40;;;0.63;;
33826;SDS011;20128;45.582;5.298;2023-04-15T14:18:22;0.60;;;0.30;;
33826;SDS011;20128;45.582;5.298;2023-04-15T14:20:48;1.67;;;0.43;;
33826;SDS011;20128;45.582;5.298;2023-04-15T14:23:14;0.30;;;0.30;;
33826;SDS011;20128;45.582;5.298;2023-04-15T14:25:39;2.55;;;0.32;;
33826;SDS011;20128;45.582;5.298;2023-04-15T14:28:05;1.98;;;0.52;;
33826;SDS011;20128;45.582;5.298;2023-04-15T14:30:31;0.65;;;0.50;;
33826;SDS011;20128;45.582;5.298;2023-04-15T14:32:56;2.10;;;0.75;;
33826;SDS011;20128;45.582;5.298;2023-04-15T14:35:22;0.50;;;0.40;;
33826;SDS011;20128;45.582;5.298;2023-04-15T14:37:50;1.05;;;0.60;;
33826;SDS011;20128;45.582;5.298;2023-04-15T14:40:17;1.52;;;0.60;;
33826;SDS011;20128;45.582;5.298;2023-04-15T14:42:43;0.50;;;0.50;;
33826;SDS011;20128;45.582;5.298;2023-04-15T14:45:09;0.80;;;0.40;;
33826;SDS011;20128;45.582;5.298;2023-04-15T14:47:35;1.15;;;0.40;;
33826;SDS011;20128;45.582;5.298;2023-04-15T14:50:01;2.47;;;0.40;;
33826;SDS011;20128;45.582;5.298;2023-04-15T14:52:27;0.73;;;0.60;;
33826;SDS011;20128;45.582;5.298;2023-04-15T14:54:54;1.17;;;0.50;;
33826;SDS011;20128;45.582;5.298;2023-04-15T14:57:20;1.45;;;0.75;;
33826;SDS011;20128;45.582;5.298;2023-04-15T14:59:45;4.63;;;1.40;;
33826;SDS011;20128;45.582;5.298;2023-04-15T15:02:12;2.22;;;0.73;;
33826;SDS011;20128;45.582;5.298;2023-04-15T15:04:37;0.95;;;0.60;;
33826;SDS011;20128;45.582;5.298;2023-04-15T15:07:04;2.42;;;1.27;;